עמוד ראשי
METAR-TAF:

METAR-TAF

שדות תעופה :

מנגואה, ניקרגואה

קו רוחב: 12-09N, קו אורך: 086-10W, גובה: 50מטר

תצפית מזג אוויר נוכחית

הדו"ח נערך לפני 1 שעות ו 15דקות, בשעה 06:00 UTC
רוח 6קשר מכיוון מזרח
טמפרטורת 29 צלסיוס
לחות 70%
לחץ 1009 hPa
ראות 10 קילומטר או יותר
מעט עננים בגובה 2300רגל

METAR: MNMG 200600Z 10006KT 9999 FEW023 29/23 Q1008 A2979 NOSIG

זמן: 01:15 (07:15 UTC)

תחזית

הדו"ח נערך לפני 4 שעות ו 15דקות, בשעה 03:00 UTC
תחזית בתוקף מ 20 ב 06 UTC עד 21 ב 06 UTC
רוח 8קשר מכיוון מזרח/דרום-מזרח
ראות 10 קילומטר או יותר
מעט עננים בגובה 2300רגל
זמנית מ -
20 ב 08 UTC עד 20 ב 13 UTC
רוח 6קשר מכיוון דרום-מזרח
מעט עננים בגובה 2000רגל

TAF: MNMG 200300Z 2006/2106 11008KT 9999 FEW023 TEMPO 2008/2013 13006KT FEW020

תצפיות ותחזיות מזג אוויר לגבי יותר מ- 4,000 שדות תעופה ברחבי העולם. דוחות METAR ו- TAF.

התחנות הזמינות מסומנות בנקודות צהובות ואדומות על גבי המפה.

העבר את העכבר לנקודה הצבעונית על מנת לראות את שם התחנה.

לאחר מכן, לחץ כדי לראות את תוכן ואת תחזיות מזג האוויר.

כדי לשנות את המפה: לחץ על הכפתורים הירוקים עם הפלוס השחור כדי להתקרב; על הכפתור הירוק עם המקף כדי להתרחק; או בחיצים הירוקים למפות סמוכות.


METAR-TAF: